Sumterville, FL

8:11 PM EDT on August 30, 2015 (GMT -0400)
Rands Compound | | Change Station
CLOSE
Current Station
Personal Weather Station
Location: Sumterville, FL
Elevation: 111 ft
Nearby Weather Stations
Active Advisory: Flood Warning

Elev 111 ft 28.74 °N, 82.06 °W | Updated 33 seconds ago

Rain
Rain
77.5 °F
Feels Like 79 °F
N
0.0
Wind Variable Wind from East
Gusts 0.0 mph

Today
High -- | Low -- °F
--% Chance of Precip.
Yesterday
High -- | Low -- °F
Precip. -- in
7:04 AM 7:51 PM
Full, 98% visible
Pressure 30.00 in
Visibility 10.0 miles
Clouds Mostly Cloudy 4500 ft
Mostly Cloudy 6000 ft
Heat Index 79 °F
Dew Point 71 °F
Humidity 80%
Rainfall 1.00 in
Snow Depth Not available.
UV 0.0 out of 12
Pollen 1.20 out of 12
Air Quality Not available.
Flu Activity Not available.
METAR KLEE 302353Z AUTO 04005KT 10SM BKN045 BKN060 26/24 A3000 RMK AO2 LTG DSNT N RAE05 SLP159 P0000 60013 T02560239 10311 20250 50013
Pressure 30.00 in
Visibility 10.0 miles
Clouds Mostly Cloudy 4500 ft
Mostly Cloudy 6000 ft
Heat Index 79 °F
Dew Point 71 °F
Humidity 80%
Rainfall 1.00 in
Snow Depth Not available.
UV 0.0 out of 12
Pollen 1.20 out of 12
Air Quality Not available.
Flu Activity Not available.
METAR KLEE 302353Z AUTO 04005KT 10SM BKN045 BKN060 26/24 A3000 RMK AO2 LTG DSNT N RAE05 SLP159 P0000 60013 T02560239 10311 20250 50013

10-Day Weather Forecast

×

Almanac

Astronomy

Aug. 30, 2015 Rise Set
Actual Time
Civil Twilight
Nautical Twilight
Astronomical Twilight
Moon
Length of Visible Light
Length of Day
Tomorrow will be .
, % of the Moon is Illuminated

Today's Extremes

State Highs State Lows

Community

WunderPhotos

Upload Photos

1,851,100 photos uploaded!

WunderBlogs® & News

Nearby

Air Quality

  Air Quality AQ Index Pollutant
Not available.

Snow Depth

Station Depth Elevation

Earthquake Activity

City Distance Mag. Time & Date
Minimum magnitude displayed is 2.5.

Coastal Water Temperatures

Place Temperature

Stations

Nearby Weather Stations

Station Location Temp. Windchill Dew Point Humidity Wind Precip. Elev Updated Type
                   
Flood Warning
Statement as of 10:23 AM EDT on August 30, 2015

The National Weather Service in Tampa FL has issued a

* Flood Warning for
the Withlacoochee River at Croom
* from Tuesday evening until further notice.
* At 9 am Sunday the stage was... 8.8 feet.
* Minor flooding is forecast.
* Flood stage is 9.0 feet.
* The river is forecast to rise above flood stage by Tuesday evening and
continue to rise to near 9.0 feet by Tuesday evening. Additional rises are
possible thereafter.
* Impact... at 9.0 feet... farms and pastureland flood.
* Flood history... this crest compares to a previous crest of 9.0 feet on Dec 27
2002.



             Fld observed forecast 8am
location stg stg day time Mon Tue Wed Thu Fri

Withlacoochee
Croom 9 8.8 sun 09 am 8.8 8.9 9.0 9.0 9.0




Lat... Lon 2854 8226 2879 8224 2879 8215 2854 8217